• Join FlightAware (Why Join?)
  • Login
  • US Flag 
07:51PM EST


 

Airport Tracker/Info


-or-


 

Live Flight TrackerFlight Track Log ✈ SWA367 ✈ 18-Feb-2014 ✈ KPIT - KMDW

Flight Track Log - Related Links

Times and Time Zones

All times are in EST time to prevent confusion due to time zone crossing. See the SWA367 flight status page for this flight to view local times or setup timezone preferences in your user account.

Time Position Orientation Groundspeed Altitude Reporting Facility
EST Latitude Longitude Course Direction KTS MPH feet Rate Location/Type
08:15PM 40.5233 -80.4111 283° West 231 266 7,900  Level Cleveland Center
08:16PM 40.5439 -80.5044 286° West 263 303 11,200 3,300 Climbing Cleveland Center
08:17PM 40.5667 -80.6122 286° West 302 348 14,700 3,120 Climbing Cleveland Center
08:18PM 40.5725 -80.7258 274° West 309 356 17,700 2,940 Climbing Cleveland Center
08:19PM 40.6287 -80.9102 285° West  Level FlightAware Approximate
08:19PM 40.5781 -80.8450 274° West 324 373 20,800  Level Cleveland Center
08:20PM 40.5881 -80.9647 276° West 332 382 22,900 1,980 Climbing Cleveland Center
08:21PM 40.6247 -81.1017 289° West 361 415 25,000 1,980 Climbing Cleveland Center
08:22PM 40.6594 -81.2317 289° West 370 426 27,100 2,220 Climbing Cleveland Center
08:23PM 40.6925 -81.3600 289° West 369 425 29,600 2,220 Climbing Cleveland Center
08:24PM 40.7242 -81.4850 289° West 357 411 31,800 1,140 Climbing Cleveland Center
08:25PM 40.7614 -81.6311 289° West 356 410 32,000 60 Climbing Cleveland Center
08:26PM 40.7936 -81.7606 288° West 363 418 32,000  Level Cleveland Center
08:27PM 40.8272 -81.8897 289° West 365 420 32,000  Level Cleveland Center
08:28PM 40.8592 -82.0200 288° West 367 422 32,000  Level Cleveland Center
08:29PM 40.8919 -82.1478 289° West 366 421 32,000  Level Cleveland Center
08:30PM 40.9231 -82.2775 288° West 366 421 32,000  Level Cleveland Center
08:31PM 40.9553 -82.4058 288° West 366 421 32,000  Level Cleveland Center
08:32PM 40.9878 -82.5353 288° West 365 420 32,000  Level Cleveland Center
08:33PM 41.0183 -82.6647 287° West 365 420 32,000  Level Cleveland Center
08:34PM 41.0500 -82.7942 288° West 365 420 32,000  Level Cleveland Center
08:36PM 41.0864 -82.9464 288° West 366 421 32,000  Level Cleveland Center
08:37PM 41.1172 -83.0756 288° West 366 421 32,000  Level Cleveland Center
08:38PM 41.1475 -83.2008 288° West 366 421 32,000  Level Cleveland Center
08:39PM 41.1786 -83.3292 288° West 366 421 32,000  Level Cleveland Center
08:40PM 41.2086 -83.4581 287° West 366 421 32,000  Level Cleveland Center
08:41PM 41.2381 -83.5856 287° West 364 419 32,000  Level Cleveland Center
08:42PM 41.2683 -83.7131 288° West 364 419 32,000  Level Cleveland Center
08:43PM 41.3025 -83.8656 287° West 363 418 32,000  Level Cleveland Center
08:43PM 41.3172 -83.9219 289° West 358 412 32,000  Level Chicago Center
08:44PM 41.3450 -84.0500 286° West 360 414 32,000 -120 Level Chicago Center
08:45PM 41.3806 -84.2019 287° West 360 414 31,800 -600 Descending Chicago Center
08:46PM 41.4094 -84.3292 287° West 360 414 30,800 -900 Descending Chicago Center
08:47PM 41.4381 -84.4556 287° West 356 410 30,000 -420 Descending Chicago Center
08:48PM 41.4661 -84.5839 286° West 360 414 30,000  Level Chicago Center
08:50PM 41.4839 -84.7153 280° West 363 418 30,000 -120 Level Chicago Center
08:51PM 41.4883 -84.8481 273° West 360 414 29,800 -660 Descending Chicago Center
08:52PM 41.4953 -85.0117 273° West 366 421 28,700 -1,020 Descending Chicago Center
08:53PM 41.4997 -85.1478 273° West 367 422 27,700 -1,140 Descending Chicago Center
08:54PM 41.5042 -85.2844 273° West 367 422 26,400 -1,800 Descending Chicago Center
08:55PM 41.5086 -85.4175 273° West 356 410 24,100 -1,200 Descending Chicago Center
08:56PM 41.5100 -85.5431 271° West 333 383 24,000  Descending Chicago Center
08:57PM 41.5122 -85.6636 271° West 323 372 24,100 -120 Climbing Chicago Center
08:58PM 41.5139 -85.7869 271° West 330 380 23,800 -1,380 Descending Chicago Center
08:59PM 41.5169 -85.9072 272° West 324 373 21,300 -2,760 Descending Chicago Center
09:00PM 41.5181 -86.0514 271° West 322 371 18,200 -2,760 Descending Chicago Center
09:01PM 41.5200 -86.1725 271° West 326 375 15,600 -2,520 Descending Chicago Center
09:02PM 41.5217 -86.2897 271° West 316 364 13,100 -2,220 Descending Chicago Center
09:03PM 41.5231 -86.4022 271° West 306 352 11,100 -1,440 Descending Chicago Center
09:04PM 41.5219 -86.5136 269° West 301 346 10,200 -540 Descending Chicago Center
09:05PM 41.5211 -86.6286 269° West 308 354 10,100 -180 Descending Chicago Center
09:06PM 41.5203 -86.7506 270° West 291 335 9,900 -840 Descending Chicago Center
09:07PM 41.5189 -86.8394 269° West 244 281 8,400 -1,440 Descending Chicago Center
09:08PM 41.5189 -86.9261 270° West 234 269 7,000 -1,200 Descending Chicago Center
09:09PM 41.5164 -87.0325 268° West 238 274 6,000 -540 Descending Chicago Center
09:10PM 41.5167 -87.1233 270° West 244 281 5,900 -480 Descending Chicago Center
09:11PM 41.5586 -87.1900 310° West 262 302 5,100 -1,020 Descending Chicago Center
09:12PM 41.6211 -87.2269 336° Northwest 251 289 3,900 -600 Descending Chicago Center
09:13PM 41.6828 -87.2631 336° Northwest 246 283 3,900  Level Chicago Center
09:14PM 41.7319 -87.2819 344° North 203 234 3,900 -240 Level Chicago Center
09:15PM 41.7967 -87.2669 10° North 200 230 3,500 -540 Descending Chicago Center
09:16PM 41.8469 -87.2669 360° North 204 235 2,900 -300 Descending Chicago Center
09:17PM 41.8531 -87.3186 279° West 164 189 2,900  Level Chicago Center
09:18PM 41.8522 -87.3753 269° West 155 178 2,900  Level Chicago Center
09:19PM 41.8517 -87.4292 269° West 150 173 2,900  Level Chicago Center
09:21PM 41.8506 -87.4850 268° West 149 171 2,900  Level Chicago Center
09:22PM 41.8506 -87.5503 270° West 148 170 2,900 -180 Level Chicago Center
09:23PM 41.8481 -87.6061 267° West 149 171 2,600 -360 Descending Chicago Center
09:24PM 41.8444 -87.6561 264° West 144 166 2,200 -480 Descending Chicago Center
09:25PM 41.8250 -87.6861 229° Southwest 120 138 1,700 -540 Descending Chicago Center
09:26PM 41.8125 -87.7183 243° Southwest 104 120 1,200 -360 Descending Chicago Center
09:27PM 41.7958 -87.7494 234° Southwest 105 121 1,000 -240 Descending Chicago Center